sensor_id;sensor_type;location;lat;lon;timestamp;temperature;humidity
26954;DHT22;14508;50.924;11.600;2023-05-07T00:00:49;12.20;99.90
26954;DHT22;14508;50.924;11.600;2023-05-07T00:03:18;12.30;99.90
26954;DHT22;14508;50.924;11.600;2023-05-07T00:05:48;12.30;99.90
26954;DHT22;14508;50.924;11.600;2023-05-07T00:08:16;12.30;99.90
26954;DHT22;14508;50.924;11.600;2023-05-07T00:10:44;12.30;99.90
26954;DHT22;14508;50.924;11.600;2023-05-07T00:13:13;12.30;99.90
26954;DHT22;14508;50.924;11.600;2023-05-07T00:15:41;12.30;99.90
26954;DHT22;14508;50.924;11.600;2023-05-07T00:18:09;12.30;99.90
26954;DHT22;14508;50.924;11.600;2023-05-07T00:20:36;12.30;99.90
26954;DHT22;14508;50.924;11.600;2023-05-07T00:23:06;12.30;99.90
26954;DHT22;14508;50.924;11.600;2023-05-07T00:25:33;12.30;99.90
26954;DHT22;14508;50.924;11.600;2023-05-07T00:28:02;12.30;99.90
26954;DHT22;14508;50.924;11.600;2023-05-07T00:30:30;12.30;99.90
26954;DHT22;14508;50.924;11.600;2023-05-07T00:32:58;12.30;99.90
26954;DHT22;14508;50.924;11.600;2023-05-07T00:35:26;12.30;99.90
26954;DHT22;14508;50.924;11.600;2023-05-07T00:37:54;12.30;99.90
26954;DHT22;14508;50.924;11.600;2023-05-07T00:40:23;12.30;99.90
26954;DHT22;14508;50.924;11.600;2023-05-07T00:42:51;12.30;99.90
26954;DHT22;14508;50.924;11.600;2023-05-07T00:45:26;12.20;99.90
26954;DHT22;14508;50.924;11.600;2023-05-07T00:47:54;12.20;99.90
26954;DHT22;14508;50.924;11.600;2023-05-07T00:50:23;12.20;99.90
26954;DHT22;14508;50.924;11.600;2023-05-07T00:52:51;12.20;99.90
26954;DHT22;14508;50.924;11.600;2023-05-07T00:55:19;12.20;99.90
26954;DHT22;14508;50.924;11.600;2023-05-07T00:57:49;12.10;99.90
26954;DHT22;14508;50.924;11.600;2023-05-07T01:00:18;12.10;99.90
26954;DHT22;14508;50.924;11.600;2023-05-07T01:02:46;12.10;99.90
26954;DHT22;14508;50.924;11.600;2023-05-07T01:05:17;12.10;99.90
26954;DHT22;14508;50.924;11.600;2023-05-07T01:07:46;12.00;99.90
26954;DHT22;14508;50.924;11.600;2023-05-07T01:10:15;12.00;99.90
26954;DHT22;14508;50.924;11.600;2023-05-07T01:12:44;12.00;99.90
26954;DHT22;14508;50.924;11.600;2023-05-07T01:15:14;12.10;99.90
26954;DHT22;14508;50.924;11.600;2023-05-07T01:17:43;12.10;99.90
26954;DHT22;14508;50.924;11.600;2023-05-07T01:20:18;12.10;99.90
26954;DHT22;14508;50.924;11.600;2023-05-07T01:22:49;12.10;99.90
26954;DHT22;14508;50.924;11.600;2023-05-07T01:25:18;12.10;99.90
26954;DHT22;14508;50.924;11.600;2023-05-07T01:27:49;12.10;99.90
26954;DHT22;14508;50.924;11.600;2023-05-07T01:30:21;12.10;99.90
26954;DHT22;14508;50.924;11.600;2023-05-07T01:32:53;12.10;99.90
26954;DHT22;14508;50.924;11.600;2023-05-07T01:35:27;12.10;99.90
26954;DHT22;14508;50.924;11.600;2023-05-07T01:37:57;12.10;99.90
26954;DHT22;14508;50.924;11.600;2023-05-07T01:40:26;12.10;99.90
26954;DHT22;14508;50.924;11.600;2023-05-07T01:42:54;12.10;99.90
26954;DHT22;14508;50.924;11.600;2023-05-07T01:45:23;12.10;99.90
26954;DHT22;14508;50.924;11.600;2023-05-07T01:47:51;12.10;99.90
26954;DHT22;14508;50.924;11.600;2023-05-07T01:50:20;12.20;99.90
26954;DHT22;14508;50.924;11.600;2023-05-07T01:52:50;12.20;99.90
26954;DHT22;14508;50.924;11.600;2023-05-07T01:55:19;12.20;99.90
26954;DHT22;14508;50.924;11.600;2023-05-07T01:57:47;12.20;99.90
26954;DHT22;14508;50.924;11.600;2023-05-07T02:00:16;12.20;99.90
26954;DHT22;14508;50.924;11.600;2023-05-07T02:02:44;12.10;99.90
26954;DHT22;14508;50.924;11.600;2023-05-07T02:06:02;12.10;99.90
26954;DHT22;14508;50.924;11.600;2023-05-07T02:08:34;12.10;99.90
26954;DHT22;14508;50.924;11.600;2023-05-07T02:11:03;12.10;99.90
26954;DHT22;14508;50.924;11.600;2023-05-07T02:13:33;12.10;99.90
26954;DHT22;14508;50.924;11.600;2023-05-07T02:16:01;12.10;99.90
26954;DHT22;14508;50.924;11.600;2023-05-07T02:18:30;12.10;99.90
26954;DHT22;14508;50.924;11.600;2023-05-07T02:20:58;12.10;99.90
26954;DHT22;14508;50.924;11.600;2023-05-07T02:23:26;12.10;99.90
26954;DHT22;14508;50.924;11.600;2023-05-07T02:25:54;12.10;99.90
26954;DHT22;14508;50.924;11.600;2023-05-07T02:28:23;12.10;99.90
26954;DHT22;14508;50.924;11.600;2023-05-07T02:30:57;12.10;99.90
26954;DHT22;14508;50.924;11.600;2023-05-07T02:33:28;12.10;99.90
26954;DHT22;14508;50.924;11.600;2023-05-07T02:35:56;12.10;99.90
26954;DHT22;14508;50.924;11.600;2023-05-07T02:38:24;12.00;99.90
26954;DHT22;14508;50.924;11.600;2023-05-07T02:40:52;12.00;99.90
26954;DHT22;14508;50.924;11.600;2023-05-07T02:43:20;11.90;99.90
26954;DHT22;14508;50.924;11.600;2023-05-07T02:46:00;11.90;99.90
26954;DHT22;14508;50.924;11.600;2023-05-07T02:48:29;11.90;99.90
26954;DHT22;14508;50.924;11.600;2023-05-07T02:50:57;11.90;99.90
26954;DHT22;14508;50.924;11.600;2023-05-07T02:53:25;11.80;99.90
26954;DHT22;14508;50.924;11.600;2023-05-07T02:55:54;11.80;99.90
26954;DHT22;14508;50.924;11.600;2023-05-07T02:58:22;11.90;99.90
26954;DHT22;14508;50.924;11.600;2023-05-07T03:00:51;11.80;99.90
26954;DHT22;14508;50.924;11.600;2023-05-07T03:03:41;11.80;99.90
26954;DHT22;14508;50.924;11.600;2023-05-07T03:06:09;11.80;99.90
26954;DHT22;14508;50.924;11.600;2023-05-07T03:08:37;11.80;99.90
26954;DHT22;14508;50.924;11.600;2023-05-07T03:11:05;11.80;99.90
26954;DHT22;14508;50.924;11.600;2023-05-07T03:13:33;11.80;99.90
26954;DHT22;14508;50.924;11.600;2023-05-07T03:16:02;11.70;99.90
26954;DHT22;14508;50.924;11.600;2023-05-07T03:18:30;11.70;99.90
26954;DHT22;14508;50.924;11.600;2023-05-07T03:20:58;11.70;99.90
26954;DHT22;14508;50.924;11.600;2023-05-07T03:23:26;11.70;99.90
26954;DHT22;14508;50.924;11.600;2023-05-07T03:25:54;11.70;99.90
26954;DHT22;14508;50.924;11.600;2023-05-07T03:28:22;11.60;99.90
26954;DHT22;14508;50.924;11.600;2023-05-07T03:30:55;11.70;99.90
26954;DHT22;14508;50.924;11.600;2023-05-07T03:33:25;11.70;99.90
26954;DHT22;14508;50.924;11.600;2023-05-07T03:35:54;11.70;99.90
26954;DHT22;14508;50.924;11.600;2023-05-07T03:38:24;11.70;99.90
26954;DHT22;14508;50.924;11.600;2023-05-07T03:40:52;11.70;99.90
26954;DHT22;14508;50.924;11.600;2023-05-07T03:43:20;11.80;99.90
26954;DHT22;14508;50.924;11.600;2023-05-07T03:45:55;11.80;99.90
26954;DHT22;14508;50.924;11.600;2023-05-07T03:48:27;11.80;99.90
26954;DHT22;14508;50.924;11.600;2023-05-07T03:50:57;11.90;99.90
26954;DHT22;14508;50.924;11.600;2023-05-07T03:53:29;11.90;99.90
26954;DHT22;14508;50.924;11.600;2023-05-07T03:55:57;11.90;99.90
26954;DHT22;14508;50.924;11.600;2023-05-07T03:58:26;11.90;99.90
26954;DHT22;14508;50.924;11.600;2023-05-07T04:00:57;11.80;99.90
26954;DHT22;14508;50.924;11.600;2023-05-07T04:03:29;11.80;99.90
26954;DHT22;14508;50.924;11.600;2023-05-07T04:05:59;11.80;99.90
26954;DHT22;14508;50.924;11.600;2023-05-07T04:08:27;11.80;99.90
26954;DHT22;14508;50.924;11.600;2023-05-07T04:10:55;11.80;99.90
26954;DHT22;14508;50.924;11.600;2023-05-07T04:13:26;11.80;99.90
26954;DHT22;14508;50.924;11.600;2023-05-07T04:15:55;11.80;99.90
26954;DHT22;14508;50.924;11.600;2023-05-07T04:18:25;11.70;99.90
26954;DHT22;14508;50.924;11.600;2023-05-07T04:20:54;11.80;99.90
26954;DHT22;14508;50.924;11.600;2023-05-07T04:23:22;11.80;99.90
26954;DHT22;14508;50.924;11.600;2023-05-07T04:25:51;11.70;99.90
26954;DHT22;14508;50.924;11.600;2023-05-07T04:28:33;11.70;99.90
26954;DHT22;14508;50.924;11.600;2023-05-07T04:31:01;11.70;99.90
26954;DHT22;14508;50.924;11.600;2023-05-07T04:33:32;11.60;99.90
26954;DHT22;14508;50.924;11.600;2023-05-07T04:36:03;11.60;99.90
26954;DHT22;14508;50.924;11.600;2023-05-07T04:38:35;11.50;99.90
26954;DHT22;14508;50.924;11.600;2023-05-07T04:41:05;11.50;99.90
26954;DHT22;14508;50.924;11.600;2023-05-07T04:43:38;11.50;99.90
26954;DHT22;14508;50.924;11.600;2023-05-07T04:46:06;11.50;99.90
26954;DHT22;14508;50.924;11.600;2023-05-07T04:48:34;11.50;99.90
26954;DHT22;14508;50.924;11.600;2023-05-07T04:51:06;11.50;99.90
26954;DHT22;14508;50.924;11.600;2023-05-07T04:53:34;11.50;99.90
26954;DHT22;14508;50.924;11.600;2023-05-07T04:56:02;11.50;99.90
26954;DHT22;14508;50.924;11.600;2023-05-07T04:58:37;11.50;99.90
26954;DHT22;14508;50.924;11.600;2023-05-07T05:01:05;11.50;99.90
26954;DHT22;14508;50.924;11.600;2023-05-07T05:03:33;11.50;99.90
26954;DHT22;14508;50.924;11.600;2023-05-07T05:06:01;11.60;99.90
26954;DHT22;14508;50.924;11.600;2023-05-07T05:08:34;11.60;99.90
26954;DHT22;14508;50.924;11.600;2023-05-07T05:11:04;11.60;99.90
26954;DHT22;14508;50.924;11.600;2023-05-07T05:13:34;11.60;99.90
26954;DHT22;14508;50.924;11.600;2023-05-07T05:16:09;11.60;99.90
26954;DHT22;14508;50.924;11.600;2023-05-07T05:18:38;11.60;99.90
26954;DHT22;14508;50.924;11.600;2023-05-07T05:21:08;11.50;99.90
26954;DHT22;14508;50.924;11.600;2023-05-07T05:23:37;11.50;99.90
26954;DHT22;14508;50.924;11.600;2023-05-07T05:26:05;11.60;99.90
26954;DHT22;14508;50.924;11.600;2023-05-07T05:28:35;11.60;99.90
26954;DHT22;14508;50.924;11.600;2023-05-07T05:31:04;11.60;99.90
26954;DHT22;14508;50.924;11.600;2023-05-07T05:33:35;11.60;99.90
26954;DHT22;14508;50.924;11.600;2023-05-07T05:36:05;11.70;99.90
26954;DHT22;14508;50.924;11.600;2023-05-07T05:38:34;11.70;99.90
26954;DHT22;14508;50.924;11.600;2023-05-07T05:41:03;11.70;99.90
26954;DHT22;14508;50.924;11.600;2023-05-07T05:43:31;11.70;99.90
26954;DHT22;14508;50.924;11.600;2023-05-07T05:45:59;11.70;99.90
26954;DHT22;14508;50.924;11.600;2023-05-07T05:48:29;11.70;99.90
26954;DHT22;14508;50.924;11.600;2023-05-07T05:51:00;11.70;99.90
26954;DHT22;14508;50.924;11.600;2023-05-07T05:53:28;11.60;99.90
26954;DHT22;14508;50.924;11.600;2023-05-07T05:55:56;11.60;99.90
26954;DHT22;14508;50.924;11.600;2023-05-07T05:58:26;11.50;99.90
26954;DHT22;14508;50.924;11.600;2023-05-07T06:00:59;11.60;99.90
26954;DHT22;14508;50.924;11.600;2023-05-07T06:03:29;11.70;99.90
26954;DHT22;14508;50.924;11.600;2023-05-07T06:06:01;11.70;99.90
26954;DHT22;14508;50.924;11.600;2023-05-07T06:08:30;11.70;99.90
26954;DHT22;14508;50.924;11.600;2023-05-07T06:10:58;11.80;99.90
26954;DHT22;14508;50.924;11.600;2023-05-07T06:13:29;11.80;99.90
26954;DHT22;14508;50.924;11.600;2023-05-07T06:15:57;11.80;99.90
26954;DHT22;14508;50.924;11.600;2023-05-07T06:18:25;11.80;99.90
26954;DHT22;14508;50.924;11.600;2023-05-07T06:21:09;11.90;99.90
26954;DHT22;14508;50.924;11.600;2023-05-07T06:23:43;12.00;99.90
26954;DHT22;14508;50.924;11.600;2023-05-07T06:26:11;12.00;99.90
26954;DHT22;14508;50.924;11.600;2023-05-07T06:28:43;12.00;99.90
26954;DHT22;14508;50.924;11.600;2023-05-07T06:31:14;12.10;99.90
26954;DHT22;14508;50.924;11.600;2023-05-07T06:33:51;12.10;99.90
26954;DHT22;14508;50.924;11.600;2023-05-07T06:36:21;12.20;99.90
26954;DHT22;14508;50.924;11.600;2023-05-07T06:38:49;12.20;99.90
26954;DHT22;14508;50.924;11.600;2023-05-07T06:41:17;12.30;99.90
26954;DHT22;14508;50.924;11.600;2023-05-07T06:43:47;12.30;99.90
26954;DHT22;14508;50.924;11.600;2023-05-07T06:46:36;12.30;99.90
26954;DHT22;14508;50.924;11.600;2023-05-07T06:49:06;12.30;99.90
26954;DHT22;14508;50.924;11.600;2023-05-07T06:51:34;12.30;99.90
26954;DHT22;14508;50.924;11.600;2023-05-07T06:54:03;12.20;99.90
26954;DHT22;14508;50.924;11.600;2023-05-07T06:56:33;12.20;99.90
26954;DHT22;14508;50.924;11.600;2023-05-07T06:59:04;12.20;99.90
26954;DHT22;14508;50.924;11.600;2023-05-07T07:01:36;12.30;99.90
26954;DHT22;14508;50.924;11.600;2023-05-07T07:04:05;12.30;99.90
26954;DHT22;14508;50.924;11.600;2023-05-07T07:06:34;12.40;99.90
26954;DHT22;14508;50.924;11.600;2023-05-07T07:09:07;12.40;99.90
26954;DHT22;14508;50.924;11.600;2023-05-07T07:11:37;12.40;99.90
26954;DHT22;14508;50.924;11.600;2023-05-07T07:14:06;12.50;99.90
26954;DHT22;14508;50.924;11.600;2023-05-07T07:16:42;12.50;99.90
26954;DHT22;14508;50.924;11.600;2023-05-07T07:19:10;12.60;99.90
26954;DHT22;14508;50.924;11.600;2023-05-07T07:21:38;12.50;99.90
26954;DHT22;14508;50.924;11.600;2023-05-07T07:24:06;12.60;99.90
26954;DHT22;14508;50.924;11.600;2023-05-07T07:26:34;12.60;99.90
26954;DHT22;14508;50.924;11.600;2023-05-07T07:29:02;12.60;99.90
26954;DHT22;14508;50.924;11.600;2023-05-07T07:31:32;12.60;99.90
26954;DHT22;14508;50.924;11.600;2023-05-07T07:34:00;12.60;99.90
26954;DHT22;14508;50.924;11.600;2023-05-07T07:36:28;12.60;99.90
26954;DHT22;14508;50.924;11.600;2023-05-07T07:39:11;12.60;99.90
26954;DHT22;14508;50.924;11.600;2023-05-07T07:41:39;12.60;99.90
26954;DHT22;14508;50.924;11.600;2023-05-07T07:44:07;12.60;99.90
26954;DHT22;14508;50.924;11.600;2023-05-07T07:46:38;12.60;99.90
26954;DHT22;14508;50.924;11.600;2023-05-07T07:49:07;12.60;99.90
26954;DHT22;14508;50.924;11.600;2023-05-07T07:51:35;12.60;99.90
26954;DHT22;14508;50.924;11.600;2023-05-07T07:54:03;12.60;99.90
26954;DHT22;14508;50.924;11.600;2023-05-07T07:56:33;12.50;99.90
26954;DHT22;14508;50.924;11.600;2023-05-07T07:59:03;12.50;99.90
26954;DHT22;14508;50.924;11.600;2023-05-07T08:01:32;12.40;99.90
26954;DHT22;14508;50.924;11.600;2023-05-07T08:04:02;12.30;99.90
26954;DHT22;14508;50.924;11.600;2023-05-07T08:06:35;12.40;99.90
26954;DHT22;14508;50.924;11.600;2023-05-07T08:09:05;12.40;99.90
26954;DHT22;14508;50.924;11.600;2023-05-07T08:11:33;12.40;99.90
26954;DHT22;14508;50.924;11.600;2023-05-07T08:14:02;12.40;99.90
26954;DHT22;14508;50.924;11.600;2023-05-07T08:16:31;12.40;99.90
26954;DHT22;14508;50.924;11.600;2023-05-07T08:19:01;12.40;99.90
26954;DHT22;14508;50.924;11.600;2023-05-07T08:21:29;12.60;99.90
26954;DHT22;14508;50.924;11.600;2023-05-07T08:24:00;12.70;99.90
26954;DHT22;14508;50.924;11.600;2023-05-07T08:26:28;12.90;99.90
26954;DHT22;14508;50.924;11.600;2023-05-07T08:28:56;13.00;99.90
26954;DHT22;14508;50.924;11.600;2023-05-07T08:31:24;13.10;99.90
26954;DHT22;14508;50.924;11.600;2023-05-07T08:33:52;13.20;99.90
26954;DHT22;14508;50.924;11.600;2023-05-07T08:36:22;13.40;99.90
26954;DHT22;14508;50.924;11.600;2023-05-07T08:38:49;13.40;99.90
26954;DHT22;14508;50.924;11.600;2023-05-07T08:41:17;13.40;99.90
26954;DHT22;14508;50.924;11.600;2023-05-07T08:43:50;13.40;99.90
26954;DHT22;14508;50.924;11.600;2023-05-07T08:46:20;13.40;99.90
26954;DHT22;14508;50.924;11.600;2023-05-07T08:48:52;13.50;99.90
26954;DHT22;14508;50.924;11.600;2023-05-07T08:51:22;13.50;99.90
26954;DHT22;14508;50.924;11.600;2023-05-07T08:53:50;13.50;99.90
26954;DHT22;14508;50.924;11.600;2023-05-07T08:56:25;13.50;99.90
26954;DHT22;14508;50.924;11.600;2023-05-07T08:58:54;13.60;99.90
26954;DHT22;14508;50.924;11.600;2023-05-07T09:01:24;13.60;99.90
26954;DHT22;14508;50.924;11.600;2023-05-07T09:03:54;13.70;99.90
26954;DHT22;14508;50.924;11.600;2023-05-07T09:06:24;13.90;99.90
26954;DHT22;14508;50.924;11.600;2023-05-07T09:08:54;14.00;99.90
26954;DHT22;14508;50.924;11.600;2023-05-07T09:11:25;14.00;99.90
26954;DHT22;14508;50.924;11.600;2023-05-07T09:13:56;14.20;99.90
26954;DHT22;14508;50.924;11.600;2023-05-07T09:16:30;14.40;99.90
26954;DHT22;14508;50.924;11.600;2023-05-07T09:18:59;14.60;99.90
26954;DHT22;14508;50.924;11.600;2023-05-07T09:21:29;14.70;99.90
26954;DHT22;14508;50.924;11.600;2023-05-07T09:24:02;14.60;99.90
26954;DHT22;14508;50.924;11.600;2023-05-07T09:26:35;14.40;99.90
26954;DHT22;14508;50.924;11.600;2023-05-07T09:29:07;14.30;99.90
26954;DHT22;14508;50.924;11.600;2023-05-07T09:31:36;14.20;99.90
26954;DHT22;14508;50.924;11.600;2023-05-07T09:34:07;14.20;99.90
26954;DHT22;14508;50.924;11.600;2023-05-07T09:36:39;14.30;99.90
26954;DHT22;14508;50.924;11.600;2023-05-07T09:39:07;14.40;99.90
26954;DHT22;14508;50.924;11.600;2023-05-07T09:41:43;14.50;99.90
26954;DHT22;14508;50.924;11.600;2023-05-07T09:44:28;14.60;99.90
26954;DHT22;14508;50.924;11.600;2023-05-07T09:46:57;14.60;99.90
26954;DHT22;14508;50.924;11.600;2023-05-07T09:49:35;14.40;99.90
26954;DHT22;14508;50.924;11.600;2023-05-07T09:52:09;14.30;99.90
26954;DHT22;14508;50.924;11.600;2023-05-07T09:54:45;14.40;99.90
26954;DHT22;14508;50.924;11.600;2023-05-07T09:57:17;14.50;99.90
26954;DHT22;14508;50.924;11.600;2023-05-07T09:59:51;14.50;99.90
26954;DHT22;14508;50.924;11.600;2023-05-07T10:02:20;14.50;99.90
26954;DHT22;14508;50.924;11.600;2023-05-07T10:04:52;14.60;99.90
26954;DHT22;14508;50.924;11.600;2023-05-07T10:07:28;14.60;99.90
26954;DHT22;14508;50.924;11.600;2023-05-07T10:10:05;14.60;99.90
26954;DHT22;14508;50.924;11.600;2023-05-07T10:12:38;14.70;99.90
26954;DHT22;14508;50.924;11.600;2023-05-07T10:15:13;14.70;99.90
26954;DHT22;14508;50.924;11.600;2023-05-07T10:17:46;14.70;99.90
26954;DHT22;14508;50.924;11.600;2023-05-07T10:20:16;14.60;99.90
26954;DHT22;14508;50.924;11.600;2023-05-07T10:22:48;14.60;99.90
26954;DHT22;14508;50.924;11.600;2023-05-07T10:25:26;14.50;99.90
26954;DHT22;14508;50.924;11.600;2023-05-07T10:28:01;14.50;99.90
26954;DHT22;14508;50.924;11.600;2023-05-07T10:30:37;14.50;99.90
26954;DHT22;14508;50.924;11.600;2023-05-07T10:33:09;14.50;99.90
26954;DHT22;14508;50.924;11.600;2023-05-07T10:35:44;14.40;99.90
26954;DHT22;14508;50.924;11.600;2023-05-07T10:38:15;14.40;99.90
26954;DHT22;14508;50.924;11.600;2023-05-07T10:40:45;14.30;99.90
26954;DHT22;14508;50.924;11.600;2023-05-07T10:43:15;14.40;99.90
26954;DHT22;14508;50.924;11.600;2023-05-07T10:46:11;14.40;99.90
26954;DHT22;14508;50.924;11.600;2023-05-07T10:49:07;14.50;99.90
26954;DHT22;14508;50.924;11.600;2023-05-07T10:52:14;14.40;99.90
26954;DHT22;14508;50.924;11.600;2023-05-07T10:55:21;14.30;99.90
26954;DHT22;14508;50.924;11.600;2023-05-07T10:58:22;14.40;99.90
26954;DHT22;14508;50.924;11.600;2023-05-07T11:01:05;14.50;99.90
26954;DHT22;14508;50.924;11.600;2023-05-07T11:04:13;14.60;99.90
26954;DHT22;14508;50.924;11.600;2023-05-07T11:10:00;14.50;99.90
26954;DHT22;14508;50.924;11.600;2023-05-07T11:12:53;14.60;99.90
26954;DHT22;14508;50.924;11.600;2023-05-07T11:15:43;14.50;99.90
26954;DHT22;14508;50.924;11.600;2023-05-07T11:18:19;14.50;99.90
26954;DHT22;14508;50.924;11.600;2023-05-07T11:20:54;14.40;99.90
26954;DHT22;14508;50.924;11.600;2023-05-07T11:23:59;14.40;99.90
26954;DHT22;14508;50.924;11.600;2023-05-07T11:26:46;14.50;99.90
26954;DHT22;14508;50.924;11.600;2023-05-07T11:29:17;14.70;99.90
26954;DHT22;14508;50.924;11.600;2023-05-07T11:31:52;14.80;99.90
26954;DHT22;14508;50.924;11.600;2023-05-07T11:34:25;14.90;99.90
26954;DHT22;14508;50.924;11.600;2023-05-07T11:36:56;15.00;99.90
26954;DHT22;14508;50.924;11.600;2023-05-07T11:39:40;15.10;98.70
26954;DHT22;14508;50.924;11.600;2023-05-07T11:42:25;15.20;96.50
26954;DHT22;14508;50.924;11.600;2023-05-07T11:44:54;15.20;97.50
26954;DHT22;14508;50.924;11.600;2023-05-07T11:47:22;15.40;97.40
26954;DHT22;14508;50.924;11.600;2023-05-07T11:49:52;15.40;94.90
26954;DHT22;14508;50.924;11.600;2023-05-07T11:52:21;15.50;96.00
26954;DHT22;14508;50.924;11.600;2023-05-07T11:54:50;15.70;94.00
26954;DHT22;14508;50.924;11.600;2023-05-07T11:57:18;15.80;94.60
26954;DHT22;14508;50.924;11.600;2023-05-07T11:59:46;16.00;93.80
26954;DHT22;14508;50.924;11.600;2023-05-07T12:02:17;16.30;91.60
26954;DHT22;14508;50.924;11.600;2023-05-07T12:04:45;16.30;91.10
26954;DHT22;14508;50.924;11.600;2023-05-07T12:07:14;16.50;89.80
26954;DHT22;14508;50.924;11.600;2023-05-07T12:09:43;16.70;85.30
26954;DHT22;14508;50.924;11.600;2023-05-07T12:12:11;16.70;82.70
26954;DHT22;14508;50.924;11.600;2023-05-07T12:14:43;16.70;81.20
26954;DHT22;14508;50.924;11.600;2023-05-07T12:17:12;16.70;83.30
26954;DHT22;14508;50.924;11.600;2023-05-07T12:19:44;16.90;84.10
26954;DHT22;14508;50.924;11.600;2023-05-07T12:22:13;17.10;82.50
26954;DHT22;14508;50.924;11.600;2023-05-07T12:24:45;17.40;81.10
26954;DHT22;14508;50.924;11.600;2023-05-07T12:27:13;17.50;78.00
26954;DHT22;14508;50.924;11.600;2023-05-07T12:29:44;17.60;78.20
26954;DHT22;14508;50.924;11.600;2023-05-07T12:32:13;17.80;75.70
26954;DHT22;14508;50.924;11.600;2023-05-07T12:34:44;17.80;74.10
26954;DHT22;14508;50.924;11.600;2023-05-07T12:37:12;17.60;72.90
26954;DHT22;14508;50.924;11.600;2023-05-07T12:39:44;17.60;72.40
26954;DHT22;14508;50.924;11.600;2023-05-07T12:42:15;17.60;72.20
26954;DHT22;14508;50.924;11.600;2023-05-07T12:44:45;17.40;70.90
26954;DHT22;14508;50.924;11.600;2023-05-07T12:47:14;17.40;72.00
26954;DHT22;14508;50.924;11.600;2023-05-07T12:49:44;17.50;72.80
26954;DHT22;14508;50.924;11.600;2023-05-07T12:52:13;17.60;71.40
26954;DHT22;14508;50.924;11.600;2023-05-07T12:54:41;17.70;71.60
26954;DHT22;14508;50.924;11.600;2023-05-07T12:57:09;17.90;71.40
26954;DHT22;14508;50.924;11.600;2023-05-07T12:59:39;18.00;69.10
26954;DHT22;14508;50.924;11.600;2023-05-07T13:02:08;18.00;67.10
26954;DHT22;14508;50.924;11.600;2023-05-07T13:04:37;18.00;67.30
26954;DHT22;14508;50.924;11.600;2023-05-07T13:07:06;18.10;66.70
26954;DHT22;14508;50.924;11.600;2023-05-07T13:09:35;17.90;66.80
26954;DHT22;14508;50.924;11.600;2023-05-07T13:12:03;17.70;67.30
26954;DHT22;14508;50.924;11.600;2023-05-07T13:14:32;18.00;68.00
26954;DHT22;14508;50.924;11.600;2023-05-07T13:17:00;18.30;67.30
26954;DHT22;14508;50.924;11.600;2023-05-07T13:19:28;18.60;65.90
26954;DHT22;14508;50.924;11.600;2023-05-07T13:21:57;18.90;62.90
26954;DHT22;14508;50.924;11.600;2023-05-07T13:24:26;18.80;62.90
26954;DHT22;14508;50.924;11.600;2023-05-07T13:26:54;18.60;62.00
26954;DHT22;14508;50.924;11.600;2023-05-07T13:29:22;18.50;63.80
26954;DHT22;14508;50.924;11.600;2023-05-07T13:31:55;18.50;63.60
26954;DHT22;14508;50.924;11.600;2023-05-07T13:34:23;18.40;63.90
26954;DHT22;14508;50.924;11.600;2023-05-07T13:36:51;18.30;62.00
26954;DHT22;14508;50.924;11.600;2023-05-07T13:39:19;18.20;63.30
26954;DHT22;14508;50.924;11.600;2023-05-07T13:41:48;18.10;62.20
26954;DHT22;14508;50.924;11.600;2023-05-07T13:44:16;18.10;63.70
26954;DHT22;14508;50.924;11.600;2023-05-07T13:46:44;18.40;63.40
26954;DHT22;14508;50.924;11.600;2023-05-07T13:49:12;18.70;61.30
26954;DHT22;14508;50.924;11.600;2023-05-07T13:51:40;19.00;59.70
26954;DHT22;14508;50.924;11.600;2023-05-07T13:54:08;19.00;59.40
26954;DHT22;14508;50.924;11.600;2023-05-07T13:56:36;18.80;60.00
26954;DHT22;14508;50.924;11.600;2023-05-07T13:59:05;18.80;59.90
26954;DHT22;14508;50.924;11.600;2023-05-07T14:01:33;18.70;60.60
26954;DHT22;14508;50.924;11.600;2023-05-07T14:04:01;18.70;59.10
26954;DHT22;14508;50.924;11.600;2023-05-07T14:06:29;18.60;60.00
26954;DHT22;14508;50.924;11.600;2023-05-07T14:08:57;18.60;60.90
26954;DHT22;14508;50.924;11.600;2023-05-07T14:11:26;18.50;60.40
26954;DHT22;14508;50.924;11.600;2023-05-07T14:13:54;18.80;59.60
26954;DHT22;14508;50.924;11.600;2023-05-07T14:16:24;18.80;59.60
26954;DHT22;14508;50.924;11.600;2023-05-07T14:18:52;19.00;59.80
26954;DHT22;14508;50.924;11.600;2023-05-07T14:21:24;19.20;57.90
26954;DHT22;14508;50.924;11.600;2023-05-07T14:23:51;19.30;58.20
26954;DHT22;14508;50.924;11.600;2023-05-07T14:26:20;19.40;58.10
26954;DHT22;14508;50.924;11.600;2023-05-07T14:28:49;19.50;57.90
26954;DHT22;14508;50.924;11.600;2023-05-07T14:31:17;19.40;57.20
26954;DHT22;14508;50.924;11.600;2023-05-07T14:33:46;19.30;58.10
26954;DHT22;14508;50.924;11.600;2023-05-07T14:36:16;19.20;57.30
26954;DHT22;14508;50.924;11.600;2023-05-07T14:38:46;19.10;57.60
26954;DHT22;14508;50.924;11.600;2023-05-07T14:41:14;19.10;57.60
26954;DHT22;14508;50.924;11.600;2023-05-07T14:43:42;19.10;57.40
26954;DHT22;14508;50.924;11.600;2023-05-07T14:46:17;19.00;56.90
26954;DHT22;14508;50.924;11.600;2023-05-07T14:48:46;18.80;57.80
26954;DHT22;14508;50.924;11.600;2023-05-07T14:51:14;18.80;58.30
26954;DHT22;14508;50.924;11.600;2023-05-07T14:53:42;18.80;57.70
26954;DHT22;14508;50.924;11.600;2023-05-07T14:56:10;18.60;57.70
26954;DHT22;14508;50.924;11.600;2023-05-07T14:58:38;18.40;58.20
26954;DHT22;14508;50.924;11.600;2023-05-07T15:01:05;18.20;59.10
26954;DHT22;14508;50.924;11.600;2023-05-07T15:03:34;18.20;59.30
26954;DHT22;14508;50.924;11.600;2023-05-07T15:06:04;18.10;59.40
26954;DHT22;14508;50.924;11.600;2023-05-07T15:08:31;18.00;59.90
26954;DHT22;14508;50.924;11.600;2023-05-07T15:10:59;18.00;60.20
26954;DHT22;14508;50.924;11.600;2023-05-07T15:13:27;17.90;60.80
26954;DHT22;14508;50.924;11.600;2023-05-07T15:15:55;17.90;61.50
26954;DHT22;14508;50.924;11.600;2023-05-07T15:18:23;17.80;60.80
26954;DHT22;14508;50.924;11.600;2023-05-07T15:20:51;17.60;61.00
26954;DHT22;14508;50.924;11.600;2023-05-07T15:23:20;17.40;62.00
26954;DHT22;14508;50.924;11.600;2023-05-07T15:25:49;17.10;62.60
26954;DHT22;14508;50.924;11.600;2023-05-07T15:28:18;16.90;63.90
26954;DHT22;14508;50.924;11.600;2023-05-07T15:30:46;16.90;64.90
26954;DHT22;14508;50.924;11.600;2023-05-07T15:33:14;16.90;64.40
26954;DHT22;14508;50.924;11.600;2023-05-07T15:35:42;16.80;64.30
26954;DHT22;14508;50.924;11.600;2023-05-07T15:38:09;16.90;63.90
26954;DHT22;14508;50.924;11.600;2023-05-07T15:40:41;16.90;63.20